Time;durP1;ratioP1;P1;durP2;ratioP2;P2;SDS_P1;SDS_P2;PMS_P1;PMS_P2;Temp;Humidity;BMP_temperature;BMP_pressure;BME280_temperature;BME280_humidity;BME280_pressure;Samples;Min_cycle;Max_cycle;Signal;HPM_P1;HPM_P2
2024/02/05 00:04:28;;;;;;;2.40;1.80;;;;;;;5.37;83.49;98823.41;218957;1257;139279;-70
2024/02/05 00:09:32;;;;;;;3.90;2.70;;;;;;;5.39;83.62;98821.52;217429;1258;139119;-72
2024/02/05 00:14:36;;;;;;;4.30;2.10;;;;;;;5.39;83.49;98820.21;217214;1261;139196;-71
2024/02/05 00:19:41;;;;;;;9.50;3.10;;;;;;;5.38;83.92;98819.33;218106;1259;139792;-71
2024/02/05 00:24:45;;;;;;;3.10;2.60;;;;;;;5.33;83.86;98814.02;218436;1258;141962;-70
2024/02/05 00:29:49;;;;;;;4.20;2.10;;;;;;;5.32;84.22;98811.72;216955;1257;139001;-71
2024/02/05 00:34:56;;;;;;;1.70;1.60;;;;;;;5.31;84.69;98801.28;217822;1258;140027;-70
2024/02/05 00:40:00;;;;;;;3.90;2.70;;;;;;;5.30;84.63;98798.48;216901;1261;139189;-71
2024/02/05 00:45:06;;;;;;;2.80;2.60;;;;;;;5.27;85.17;98794.45;218407;1257;139460;-71
2024/02/05 00:50:11;;;;;;;2.60;2.40;;;;;;;5.25;85.39;98785.25;217064;1258;139415;-71
2024/02/05 00:55:15;;;;;;;5.10;2.60;;;;;;;5.24;85.98;98785.95;216971;1257;141288;-71
2024/02/05 01:00:20;;;;;;;4.70;2.30;;;;;;;5.22;85.90;98779.84;217351;1257;139716;-71
2024/02/05 01:05:26;;;;;;;4.20;3.80;;;;;;;5.20;86.26;98771.27;217246;1261;142168;-71
2024/02/05 01:10:31;;;;;;;2.70;2.50;;;;;;;5.18;86.82;98757.98;218027;1257;140594;-72
2024/02/05 01:15:35;;;;;;;3.90;3.60;;;;;;;5.14;86.91;98743.59;216884;1258;140377;-70
2024/02/05 01:20:41;;;;;;;2.60;2.40;;;;;;;5.12;87.20;98735.30;216864;1261;139495;-73
2024/02/05 01:25:47;;;;;;;4.30;3.10;;;;;;;5.11;87.41;98746.20;218161;1257;140158;-70
2024/02/05 01:30:51;;;;;;;2.70;2.50;;;;;;;5.11;87.57;98742.17;216860;1257;139744;-71
2024/02/05 01:35:57;;;;;;;4.00;3.70;;;;;;;5.09;88.03;98730.20;216874;1262;139500;-71
2024/02/05 01:41:03;;;;;;;4.60;3.90;;;;;;;5.07;88.35;98723.32;217391;1257;140176;-71
2024/02/05 01:46:15;;;;;;;3.30;3.10;;;;;;;5.07;88.57;98719.91;218215;1257;139900;-72
2024/02/05 01:51:25;;;;;;;3.60;3.20;;;;;;;5.08;88.46;98709.86;218759;1258;139697;-71
2024/02/05 01:56:32;;;;;;;3.60;3.30;;;;;;;5.13;88.68;98697.61;219886;1258;140598;-69
2024/02/05 02:01:38;;;;;;;3.00;2.80;;;;;;;5.16;88.97;98697.85;219841;1257;140281;-70
2024/02/05 02:06:43;;;;;;;4.20;2.90;;;;;;;5.18;88.51;98686.64;218046;1257;139365;-69
2024/02/05 02:11:48;;;;;;;4.80;3.10;;;;;;;5.19;89.20;98682.16;217464;1258;140027;-69
2024/02/05 02:16:54;;;;;;;3.10;2.90;;;;;;;5.17;89.08;98684.66;216766;1257;140074;-72
2024/02/05 02:22:04;;;;;;;3.30;3.00;;;;;;;5.18;89.17;98674.13;216538;1257;140398;-73
2024/02/05 02:27:09;;;;;;;3.90;3.50;;;;;;;5.18;89.32;98666.77;216840;1258;139970;-71
2024/02/05 02:32:28;;;;;;;2.80;2.60;;;;;;;5.18;89.27;98657.06;217923;1257;139502;-73
2024/02/05 02:37:38;;;;;;;3.20;2.70;;;;;;;5.19;89.60;98655.13;216744;1260;139859;-72
2024/02/05 02:42:44;;;;;;;4.10;3.10;;;;;;;5.18;89.04;98651.20;218362;1258;140903;-71
2024/02/05 02:47:48;;;;;;;3.00;2.50;;;;;;;5.16;89.36;98649.23;217194;1258;140173;-70
2024/02/05 02:52:52;;;;;;;2.20;2.00;;;;;;;5.15;89.52;98647.30;216635;1262;139524;-69
2024/02/05 02:57:57;;;;;;;2.50;2.40;;;;;;;5.15;89.70;98648.77;217323;1261;139285;-69
2024/02/05 03:03:01;;;;;;;2.40;2.30;;;;;;;5.15;89.86;98637.84;216887;1258;139750;-68
2024/02/05 03:08:07;;;;;;;1.60;1.50;;;;;;;5.14;89.86;98633.71;216675;1260;140116;-69
2024/02/05 03:13:17;;;;;;;1.90;1.80;;;;;;;5.12;89.93;98629.42;216809;1260;139079;-69
2024/02/05 03:18:23;;;;;;;1.80;1.70;;;;;;;5.10;90.03;98625.35;216835;1261;139532;-68
2024/02/05 03:23:27;;;;;;;4.50;1.80;;;;;;;5.11;90.28;98629.88;217111;1260;140427;-69
2024/02/05 03:28:32;;;;;;;1.60;1.50;;;;;;;5.13;90.21;98617.30;217208;1257;138998;-69
2024/02/05 03:33:37;;;;;;;2.00;1.90;;;;;;;5.15;90.13;98613.17;217098;1257;140671;-74
2024/02/05 03:38:41;;;;;;;3.60;1.80;;;;;;;5.17;90.36;98614.70;218376;1257;140379;-74
2024/02/05 03:43:48;;;;;;;1.50;1.50;;;;;;;5.16;90.25;98622.02;217667;1257;139516;-74
2024/02/05 03:48:54;;;;;;;2.20;1.80;;;;;;;5.18;90.42;98620.86;219716;1257;140516;-72
2024/02/05 03:54:01;;;;;;;1.90;1.80;;;;;;;5.20;90.68;98617.56;219656;1258;139636;-73
2024/02/05 03:59:05;;;;;;;1.70;1.60;;;;;;;5.20;90.69;98613.45;219162;1259;139408;-72
2024/02/05 04:04:11;;;;;;;2.10;1.20;;;;;;;5.23;90.61;98604.27;219608;1257;139714;-72
2024/02/05 04:09:16;;;;;;;1.50;1.50;;;;;;;5.26;90.80;98602.98;217767;1260;140459;-71
2024/02/05 04:14:21;;;;;;;1.30;1.30;;;;;;;5.27;90.94;98598.02;218961;1257;141473;-71
2024/02/05 04:19:26;;;;;;;1.90;1.80;;;;;;;5.28;90.97;98609.68;218351;1260;140242;-71
2024/02/05 04:24:30;;;;;;;2.70;1.90;;;;;;;5.28;90.88;98606.40;217091;1258;139777;-72
2024/02/05 04:29:45;;;;;;;1.10;1.00;;;;;;;5.25;91.17;98601.08;217355;1261;141423;-70
2024/02/05 04:34:49;;;;;;;1.10;1.10;;;;;;;5.21;91.50;98603.42;217077;1257;138819;-70
2024/02/05 04:39:57;;;;;;;1.50;1.40;;;;;;;5.17;91.67;98597.48;216766;1257;448475;-72
2024/02/05 04:45:01;;;;;;;2.20;1.50;;;;;;;5.16;91.81;98600.27;217175;1261;139535;-69
2024/02/05 04:50:06;;;;;;;1.00;1.00;;;;;;;5.16;92.00;98591.53;216675;1261;139882;-69
2024/02/05 04:55:10;;;;;;;1.10;1.10;;;;;;;5.12;92.11;98592.53;216998;1261;141699;-71
2024/02/05 05:00:17;;;;;;;1.00;1.00;;;;;;;5.08;92.15;98582.95;216890;1260;139892;-70
2024/02/05 05:05:21;;;;;;;1.30;0.80;;;;;;;5.06;92.43;98576.14;217750;1260;139738;-72
2024/02/05 05:10:26;;;;;;;1.60;1.50;;;;;;;5.07;92.94;98565.37;216927;1260;139925;-73
2024/02/05 05:15:31;;;;;;;1.20;1.00;;;;;;;5.06;92.91;98567.69;217108;1260;139865;-71
2024/02/05 05:20:42;;;;;;;0.80;0.70;;;;;;;5.08;93.38;98570.06;217170;1261;139625;-73
2024/02/05 05:25:45;;;;;;;2.00;1.60;;;;;;;5.10;93.34;98580.45;217039;1258;139398;-72
2024/02/05 05:30:50;;;;;;;1.20;1.20;;;;;;;5.11;93.19;98589.41;217861;1258;140072;-72
2024/02/05 05:35:55;;;;;;;0.90;0.90;;;;;;;5.12;93.77;98591.66;216543;1260;140438;-71
2024/02/05 05:41:03;;;;;;;0.60;0.60;;;;;;;5.15;93.63;98592.40;216942;1260;140352;-72
2024/02/05 05:46:18;;;;;;;1.60;1.60;;;;;;;5.17;93.85;98589.81;217462;1262;139862;-72
2024/02/05 05:51:23;;;;;;;0.50;0.50;;;;;;;5.20;93.98;98587.77;216536;1257;142536;-71
2024/02/05 05:56:28;;;;;;;0.70;0.50;;;;;;;5.22;93.80;98594.79;219856;1257;139401;-71
2024/02/05 06:01:35;;;;;;;1.10;0.60;;;;;;;5.24;93.93;98590.13;219691;1260;139830;-72
2024/02/05 06:06:40;;;;;;;0.50;0.50;;;;;;;5.28;93.85;98593.23;219760;1258;140079;-73
2024/02/05 06:11:47;;;;;;;0.50;0.50;;;;;;;5.34;93.80;98600.16;217576;1260;140196;-71
2024/02/05 06:16:51;;;;;;;0.90;0.60;;;;;;;5.41;93.86;98609.52;218888;1258;140274;-72
2024/02/05 06:21:57;;;;;;;0.80;0.80;;;;;;;5.46;93.70;98616.89;217593;1257;139390;-72
2024/02/05 06:27:05;;;;;;;0.50;0.50;;;;;;;5.50;94.04;98612.27;217312;1261;141791;-72
2024/02/05 06:32:10;;;;;;;0.60;0.60;;;;;;;5.53;94.04;98610.05;217209;1257;141398;-71
2024/02/05 06:37:15;;;;;;;1.40;1.30;;;;;;;5.54;94.27;98614.04;217125;1259;140289;-71
2024/02/05 06:42:22;;;;;;;1.10;1.10;;;;;;;5.56;94.45;98626.83;218234;1257;139283;-72
2024/02/05 06:47:28;;;;;;;0.80;0.80;;;;;;;5.62;94.26;98639.92;217559;1257;139511;-71
2024/02/05 06:52:33;;;;;;;0.90;0.90;;;;;;;5.68;94.78;98643.20;217499;1261;140288;-69
2024/02/05 06:57:37;;;;;;;1.40;1.20;;;;;;;5.75;94.48;98647.27;217058;1257;139361;-70
2024/02/05 07:02:43;;;;;;;1.20;1.20;;;;;;;5.82;94.57;98650.67;217225;1261;139347;-71
2024/02/05 07:07:48;;;;;;;1.90;1.80;;;;;;;5.87;94.39;98655.71;217732;1258;140012;-69
2024/02/05 07:12:52;;;;;;;2.00;1.90;;;;;;;5.93;94.51;98660.32;219150;1262;140147;-69
2024/02/05 07:17:56;;;;;;;1.50;1.20;;;;;;;5.97;94.38;98671.32;216518;1261;140053;-69
2024/02/05 07:23:01;;;;;;;1.60;1.40;;;;;;;5.97;94.53;98671.52;216779;1258;141394;-69
2024/02/05 07:28:05;;;;;;;1.80;1.70;;;;;;;5.98;94.68;98669.76;218000;1259;139310;-71
2024/02/05 07:33:11;;;;;;;1.70;1.50;;;;;;;6.00;94.67;98667.96;218107;1259;139628;-72
2024/02/05 07:38:16;;;;;;;1.60;1.50;;;;;;;6.07;94.63;98675.42;216628;1259;140210;-72
2024/02/05 07:43:20;;;;;;;2.20;2.00;;;;;;;6.15;94.85;98671.48;216788;1260;139269;-70
2024/02/05 07:48:27;;;;;;;2.40;2.30;;;;;;;6.25;94.73;98677.69;216759;1261;141189;-70
2024/02/05 07:53:32;;;;;;;2.90;1.90;;;;;;;6.32;93.94;98680.04;218658;1259;139631;-69
2024/02/05 07:58:37;;;;;;;1.60;1.50;;;;;;;6.44;94.20;98683.86;216882;1261;139376;-70
2024/02/05 08:03:41;;;;;;;1.20;1.20;;;;;;;6.57;93.91;98686.26;216886;1261;140260;-70
2024/02/05 08:08:47;;;;;;;1.90;1.80;;;;;;;6.68;93.30;98690.34;218288;1260;139059;-71
2024/02/05 08:13:54;;;;;;;1.70;1.60;;;;;;;6.77;92.84;98693.64;218010;1258;139235;-71
2024/02/05 08:18:59;;;;;;;1.50;1.50;;;;;;;6.86;92.65;98711.45;217779;1260;139613;-70
2024/02/05 08:24:04;;;;;;;1.20;1.20;;;;;;;6.97;92.74;98712.09;217334;1257;140327;-71
2024/02/05 08:29:08;;;;;;;1.30;1.20;;;;;;;7.05;92.26;98720.60;217834;1257;139311;-70
2024/02/05 08:34:13;;;;;;;2.10;1.60;;;;;;;7.08;92.37;98732.42;216960;1257;139099;-70
2024/02/05 08:39:18;;;;;;;2.50;1.30;;;;;;;7.08;91.75;98743.08;217668;1262;139672;-70
2024/02/05 08:44:25;;;;;;;2.00;1.70;;;;;;;7.09;91.49;98745.54;216964;1257;139896;-70
2024/02/05 08:49:29;;;;;;;1.80;1.40;;;;;;;7.14;91.26;98752.95;217172;1262;139734;-70
2024/02/05 08:54:35;;;;;;;1.50;1.20;;;;;;;7.17;91.04;98758.36;216959;1262;139748;-70
2024/02/05 08:59:39;;;;;;;1.60;1.30;;;;;;;7.23;90.77;98762.09;216942;1258;139317;-70
2024/02/05 09:04:45;;;;;;;0.80;0.80;;;;;;;7.29;90.62;98773.48;216819;1262;139375;-68
2024/02/05 09:09:50;;;;;;;1.30;0.90;;;;;;;7.31;90.20;98768.55;217232;1261;139561;-69
2024/02/05 09:14:54;;;;;;;1.60;0.90;;;;;;;7.37;90.15;98772.51;216904;1259;140026;-69
2024/02/05 09:19:58;;;;;;;4.50;2.00;;;;;;;7.41;89.78;98767.98;217011;1261;139139;-69
2024/02/05 09:25:03;;;;;;;1.90;1.70;;;;;;;7.46;89.17;98772.69;217749;1261;139558;-68
2024/02/05 09:30:07;;;;;;;1.80;1.40;;;;;;;7.53;89.15;98774.94;216722;1258;140210;-68
2024/02/05 09:35:15;;;;;;;2.70;2.20;;;;;;;7.59;89.03;98778.19;218188;1259;139668;-68
2024/02/05 09:40:19;;;;;;;2.10;1.60;;;;;;;7.66;88.76;98768.59;219746;1257;139109;-71
2024/02/05 09:45:27;;;;;;;2.40;1.90;;;;;;;7.67;87.83;98767.38;219574;1261;140079;-70
2024/02/05 09:50:35;;;;;;;1.50;1.30;;;;;;;7.66;87.78;98779.56;219267;1261;139468;-70
2024/02/05 09:56:00;;;;;;;1.90;1.70;;;;;;;7.67;87.33;98778.61;216912;1258;139403;-70
2024/02/05 10:01:07;;;;;;;1.70;1.60;;;;;;;7.59;87.40;98780.14;216897;1262;139809;-71
2024/02/05 10:06:17;;;;;;;2.70;1.20;;;;;;;7.54;87.36;98786.63;216739;1262;139974;-70
2024/02/05 10:11:24;;;;;;;1.20;1.20;;;;;;;7.55;87.56;98782.92;216662;1258;139309;-70
2024/02/05 10:16:28;;;;;;;2.00;1.60;;;;;;;7.58;87.67;98786.96;217056;1258;140070;-71
2024/02/05 10:21:32;;;;;;;1.80;1.30;;;;;;;7.60;87.50;98783.77;216601;1261;139463;-70
2024/02/05 10:26:37;;;;;;;1.00;1.00;;;;;;;7.58;87.07;98788.25;216844;1259;139210;-71
2024/02/05 10:31:50;;;;;;;3.20;2.00;;;;;;;7.60;87.58;98785.85;217357;1260;139357;-72
2024/02/05 10:37:04;;;;;;;1.50;1.40;;;;;;;7.62;87.47;98786.94;217393;1262;139113;-70
2024/02/05 10:42:09;;;;;;;2.30;1.90;;;;;;;7.64;87.30;98785.94;216835;1262;140156;-72
2024/02/05 10:47:13;;;;;;;3.70;1.70;;;;;;;7.66;87.40;98790.75;216857;1261;139213;-73
2024/02/05 10:52:18;;;;;;;1.60;0.60;;;;;;;7.67;87.40;98775.11;216540;1261;141581;-75
2024/02/05 10:57:24;;;;;;;1.40;1.30;;;;;;;7.65;87.23;98769.52;216646;1262;139652;-74
2024/02/05 11:02:37;;;;;;;1.00;0.80;;;;;;;7.59;87.02;98763.60;217813;1261;139773;-73
2024/02/05 11:07:50;;;;;;;1.90;1.50;;;;;;;7.63;87.31;98763.34;216866;1262;139377;-72
2024/02/05 11:13:04;;;;;;;1.80;1.40;;;;;;;7.60;87.29;98767.90;216901;1261;140139;-69
2024/02/05 11:18:14;;;;;;;2.50;2.00;;;;;;;7.64;87.31;98762.45;217990;1258;140765;-73
2024/02/05 11:23:20;;;;;;;0.90;0.80;;;;;;;7.65;87.40;98770.15;217096;1261;139554;-70
2024/02/05 11:28:24;;;;;;;1.30;1.20;;;;;;;7.59;87.30;98771.34;217058;1257;138874;-69
2024/02/05 11:33:30;;;;;;;1.50;1.30;;;;;;;7.54;87.04;98776.23;217848;1260;140065;-70
2024/02/05 11:38:34;;;;;;;1.10;1.00;;;;;;;7.48;87.20;98770.80;217285;1260;139303;-72
2024/02/05 11:43:38;;;;;;;1.20;1.00;;;;;;;7.47;87.18;98772.06;220215;1257;139777;-69
2024/02/05 11:48:43;;;;;;;1.70;1.00;;;;;;;7.51;86.97;98766.46;218784;1258;139685;-69
2024/02/05 11:53:47;;;;;;;1.90;0.90;;;;;;;7.44;87.04;98768.29;217156;1257;139354;-69
2024/02/05 11:58:51;;;;;;;1.10;0.90;;;;;;;7.42;87.26;98762.00;219391;1260;139754;-70
2024/02/05 12:03:57;;;;;;;2.30;1.20;;;;;;;7.37;87.31;98767.48;217363;1258;139878;-71
2024/02/05 12:09:06;;;;;;;0.80;0.80;;;;;;;7.33;87.27;98770.53;217363;1261;139119;-74
2024/02/05 12:14:17;;;;;;;1.30;0.90;;;;;;;7.28;87.45;98774.02;218661;1260;139135;-75
2024/02/05 12:19:25;;;;;;;2.00;1.90;;;;;;;7.22;87.26;98772.23;217004;1257;139884;-70
2024/02/05 12:24:31;;;;;;;2.80;2.60;;;;;;;7.18;87.97;98770.15;217428;1257;138950;-70
2024/02/05 12:29:37;;;;;;;4.30;2.40;;;;;;;7.09;88.25;98775.22;217248;1257;140182;-70
2024/02/05 12:35:13;;;;;;;2.40;2.20;;;;;;;7.01;88.38;98770.14;217648;1257;141177;-71
2024/02/05 12:40:20;;;;;;;1.50;1.40;;;;;;;6.94;88.53;98781.04;217006;1258;139905;-71
2024/02/05 12:45:25;;;;;;;9.00;8.40;;;;;;;6.88;89.07;98771.73;217536;1260;139348;-76
2024/02/05 12:50:29;;;;;;;5.60;5.10;;;;;;;6.85;89.30;98772.51;217096;1260;139986;-74
2024/02/05 12:55:36;;;;;;;3.20;2.90;;;;;;;6.76;89.38;98775.50;216698;1258;140324;-75
2024/02/05 13:00:40;;;;;;;3.00;2.80;;;;;;;6.74;90.04;98787.91;217427;1257;140740;-70
2024/02/05 13:05:47;;;;;;;4.80;4.30;;;;;;;6.73;90.41;98795.63;217435;1260;140076;-74
2024/02/05 13:11:15;;;;;;;2.80;2.50;;;;;;;6.68;90.20;98794.39;217756;1257;139559;-73
2024/02/05 13:16:19;;;;;;;3.20;2.40;;;;;;;6.60;90.30;98804.46;217445;1257;139180;-75
2024/02/05 13:21:24;;;;;;;2.40;2.00;;;;;;;6.58;90.84;98804.15;217234;1258;139930;-72
2024/02/05 13:26:28;;;;;;;1.70;1.60;;;;;;;6.60;90.65;98795.55;217069;1258;139658;-73
2024/02/05 13:31:32;;;;;;;2.40;1.90;;;;;;;6.58;90.57;98801.29;217073;1257;139318;-77
2024/02/05 13:36:36;;;;;;;4.40;1.50;;;;;;;6.55;90.89;98808.05;219910;1257;139858;-75
2024/02/05 13:41:42;;;;;;;2.10;1.80;;;;;;;6.50;90.73;98809.48;217205;1258;140411;-76
2024/02/05 13:46:48;;;;;;;3.00;2.00;;;;;;;6.50;91.18;98818.16;217313;1257;141361;-74
2024/02/05 13:51:52;;;;;;;4.60;2.80;;;;;;;6.48;91.14;98823.93;217527;1257;139406;-70
2024/02/05 13:56:57;;;;;;;2.60;2.00;;;;;;;6.42;90.84;98825.77;217534;1260;139035;-72
2024/02/05 14:02:01;;;;;;;2.90;2.60;;;;;;;6.31;91.03;98826.06;217174;1257;140226;-70
2024/02/05 14:07:05;;;;;;;6.40;2.50;;;;;;;6.30;91.46;98833.98;216774;1261;139214;-69
2024/02/05 14:12:12;;;;;;;4.20;2.60;;;;;;;6.28;91.36;98835.77;217175;1258;139187;-68
2024/02/05 14:17:15;;;;;;;3.20;2.00;;;;;;;6.24;90.88;98835.95;217086;1257;140162;-69
2024/02/05 14:22:19;;;;;;;2.90;1.60;;;;;;;6.22;91.03;98845.02;216947;1260;139218;-69
2024/02/05 14:27:22;;;;;;;1.00;0.90;;;;;;;6.23;91.30;98848.59;216998;1257;140264;-69
2024/02/05 14:32:26;;;;;;;2.50;1.80;;;;;;;6.25;91.44;98843.89;216691;1257;140392;-69
2024/02/05 14:37:29;;;;;;;3.60;2.20;;;;;;;6.24;91.58;98843.97;216901;1261;141084;-71
2024/02/05 14:42:33;;;;;;;1.40;1.30;;;;;;;6.24;91.75;98834.92;217539;1256;140755;-75
2024/02/05 14:47:37;;;;;;;2.90;2.60;;;;;;;6.23;92.25;98830.83;218698;1257;140216;-72
2024/02/05 14:52:41;;;;;;;1.80;1.70;;;;;;;6.24;92.29;98826.95;217296;1257;139460;-71
2024/02/05 14:57:45;;;;;;;2.80;1.80;;;;;;;6.23;91.61;98821.76;216938;1257;139939;-69
2024/02/05 15:02:49;;;;;;;2.20;1.90;;;;;;;6.22;91.88;98822.87;217147;1257;140236;-69
2024/02/05 15:07:54;;;;;;;1.30;1.20;;;;;;;6.23;92.28;98826.85;218134;1260;138909;-69
2024/02/05 15:12:58;;;;;;;3.40;2.90;;;;;;;6.19;91.95;98833.02;217873;1257;139614;-70
2024/02/05 15:18:03;;;;;;;2.90;2.10;;;;;;;6.16;92.38;98838.00;218167;1256;139315;-71
2024/02/05 15:23:07;;;;;;;2.40;2.10;;;;;;;6.15;92.54;98835.77;217711;1260;139888;-69
2024/02/05 15:28:11;;;;;;;2.30;1.80;;;;;;;6.14;92.13;98832.13;216931;1259;140253;-71
2024/02/05 15:33:16;;;;;;;3.10;1.80;;;;;;;6.09;92.75;98834.41;216859;1260;140285;-70
2024/02/05 15:38:20;;;;;;;3.50;2.60;;;;;;;6.02;92.62;98836.30;216855;1259;139483;-72
2024/02/05 15:43:25;;;;;;;1.80;1.70;;;;;;;5.97;92.82;98830.45;218164;1257;139813;-74
2024/02/05 15:48:30;;;;;;;2.30;1.50;;;;;;;5.93;93.11;98834.97;217482;1256;139633;-76
2024/02/05 15:53:34;;;;;;;6.80;3.90;;;;;;;5.92;93.48;98849.31;217110;1258;139777;-72
2024/02/05 15:58:39;;;;;;;1.60;1.50;;;;;;;5.90;93.37;98858.58;217432;1259;139040;-74
2024/02/05 16:03:46;;;;;;;2.40;2.00;;;;;;;5.87;93.75;98859.35;217233;1257;139036;-73
2024/02/05 16:08:51;;;;;;;3.30;2.30;;;;;;;5.88;93.81;98854.59;217225;1257;139439;-73
2024/02/05 16:13:55;;;;;;;2.50;1.80;;;;;;;5.90;94.09;98853.40;217074;1257;138953;-71
2024/02/05 16:18:59;;;;;;;4.40;2.10;;;;;;;5.90;94.21;98859.09;217159;1257;139161;-72
2024/02/05 16:24:05;;;;;;;2.30;2.20;;;;;;;5.90;93.95;98854.34;217269;1258;139245;-72
2024/02/05 16:29:08;;;;;;;3.90;2.10;;;;;;;5.90;94.05;98860.33;217362;1260;140262;-72
2024/02/05 16:34:16;;;;;;;2.10;1.90;;;;;;;5.92;94.54;98848.98;217349;1256;138956;-72
2024/02/05 16:39:32;;;;;;;2.00;1.90;;;;;;;5.92;94.67;98848.90;216760;1257;338241;-73
2024/02/05 16:44:36;;;;;;;4.40;3.90;;;;;;;5.93;94.74;98848.40;217092;1260;141478;-72
2024/02/05 16:49:40;;;;;;;3.80;2.20;;;;;;;5.94;95.07;98843.09;217210;1260;139211;-73
2024/02/05 16:54:44;;;;;;;3.80;3.50;;;;;;;5.95;95.01;98844.55;217407;1257;140641;-72
2024/02/05 16:59:50;;;;;;;2.80;2.60;;;;;;;5.98;95.12;98841.59;217147;1260;139565;-71
2024/02/05 17:04:54;;;;;;;2.90;2.60;;;;;;;5.98;95.43;98839.38;217564;1259;140199;-73
2024/02/05 17:09:59;;;;;;;4.10;3.60;;;;;;;6.00;95.41;98836.05;217434;1257;140272;-76
2024/02/05 17:15:03;;;;;;;5.10;4.60;;;;;;;6.04;95.56;98831.02;217205;1260;139282;-73
2024/02/05 17:20:08;;;;;;;5.00;4.40;;;;;;;6.11;96.21;98821.80;217012;1260;139409;-73
2024/02/05 17:25:12;;;;;;;6.40;5.30;;;;;;;6.19;97.02;98816.80;218047;1257;140062;-73
2024/02/05 17:30:17;;;;;;;5.70;3.80;;;;;;;6.29;97.84;98820.90;217221;1260;139201;-74
2024/02/05 17:35:21;;;;;;;6.00;5.00;;;;;;;6.37;97.77;98824.14;217309;1257;140121;-73
2024/02/05 17:40:26;;;;;;;4.40;3.70;;;;;;;6.49;98.14;98823.03;217523;1257;140583;-73
2024/02/05 17:45:33;;;;;;;3.80;3.30;;;;;;;6.57;98.89;98813.56;217282;1259;139350;-72
2024/02/05 17:50:38;;;;;;;4.40;3.10;;;;;;;6.66;99.04;98814.52;217191;1260;139179;-72
2024/02/05 17:55:42;;;;;;;5.10;3.70;;;;;;;6.72;99.14;98824.16;217359;1256;139253;-71
2024/02/05 18:00:48;;;;;;;3.70;3.30;;;;;;;6.76;99.21;98829.42;217666;1257;139448;-74
2024/02/05 18:05:53;;;;;;;5.10;4.00;;;;;;;6.79;99.20;98830.88;217180;1257;139946;-71
2024/02/05 18:10:58;;;;;;;5.90;4.80;;;;;;;6.82;99.37;98826.68;217280;1257;139280;-73
2024/02/05 18:16:01;;;;;;;9.40;5.90;;;;;;;6.82;99.22;98818.91;217286;1260;139635;-73
2024/02/05 18:21:06;;;;;;;4.30;3.80;;;;;;;6.84;99.24;98826.54;217237;1260;139550;-71
2024/02/05 18:26:11;;;;;;;8.40;4.40;;;;;;;6.87;99.36;98828.79;217914;1257;139408;-74
2024/02/05 18:31:15;;;;;;;5.20;3.80;;;;;;;6.90;99.50;98828.36;218404;1257;140052;-72
2024/02/05 18:36:20;;;;;;;8.90;5.50;;;;;;;6.93;99.13;98838.45;217280;1258;139200;-71
2024/02/05 18:41:25;;;;;;;14.40;6.70;;;;;;;6.95;99.22;98838.86;218346;1256;139249;-72
2024/02/05 18:46:29;;;;;;;13.50;5.70;;;;;;;6.98;99.31;98841.47;218508;1257;140357;-72
2024/02/05 18:51:33;;;;;;;8.70;5.00;;;;;;;6.98;99.26;98846.84;217073;1257;139364;-72
2024/02/05 18:56:41;;;;;;;13.30;5.80;;;;;;;6.98;98.93;98843.38;217358;1257;151619;-76
2024/02/05 19:01:46;;;;;;;10.30;6.60;;;;;;;6.96;99.04;98848.38;217190;1259;139666;-73
2024/02/05 19:06:50;;;;;;;8.10;5.60;;;;;;;6.94;99.23;98851.56;217423;1257;139493;-74
2024/02/05 19:11:56;;;;;;;12.60;6.50;;;;;;;6.93;99.07;98847.83;218762;1259;139572;-71
2024/02/05 19:17:01;;;;;;;11.40;5.70;;;;;;;6.92;99.35;98852.24;217923;1257;139398;-70
2024/02/05 19:22:05;;;;;;;13.40;7.70;;;;;;;6.92;99.59;98848.75;217662;1257;139513;-70
2024/02/05 19:27:10;;;;;;;11.60;5.30;;;;;;;6.91;99.31;98834.12;217368;1260;140058;-75
2024/02/05 19:32:15;;;;;;;10.00;5.80;;;;;;;6.91;99.39;98833.36;218373;1259;140687;-71
2024/02/05 19:37:19;;;;;;;10.60;7.20;;;;;;;6.91;99.03;98829.98;217794;1256;139689;-71
2024/02/05 19:42:24;;;;;;;19.20;8.90;;;;;;;6.92;99.42;98825.60;218555;1259;141211;-74
2024/02/05 19:47:28;;;;;;;19.60;7.50;;;;;;;6.92;99.10;98834.72;217448;1257;139649;-71
2024/02/05 19:52:32;;;;;;;16.40;6.70;;;;;;;6.91;99.19;98834.69;217279;1257;139069;-68
2024/02/05 19:57:41;;;;;;;15.60;7.20;;;;;;;6.91;98.77;98831.61;217171;1257;139388;-69
2024/02/05 20:02:45;;;;;;;15.30;6.90;;;;;;;6.92;99.20;98826.82;219808;1257;140029;-75
2024/02/05 20:07:50;;;;;;;15.50;5.80;;;;;;;6.94;98.82;98820.71;217213;1260;139404;-69
2024/02/05 20:12:55;;;;;;;11.60;5.10;;;;;;;6.93;98.55;98812.44;217253;1257;139975;-75
2024/02/05 20:17:59;;;;;;;10.30;4.90;;;;;;;6.95;98.35;98807.11;218147;1257;140325;-69
2024/02/05 20:23:05;;;;;;;11.90;6.10;;;;;;;6.99;98.20;98815.73;217519;1257;139549;-68
2024/02/05 20:28:11;;;;;;;13.90;5.30;;;;;;;7.01;98.03;98822.40;217138;1257;139923;-71
2024/02/05 20:33:15;;;;;;;12.80;6.30;;;;;;;7.04;97.59;98820.54;217589;1257;140596;-74
2024/02/05 20:38:19;;;;;;;9.90;4.30;;;;;;;7.06;97.55;98808.83;217401;1257;140307;-73
2024/02/05 20:43:23;;;;;;;11.80;5.10;;;;;;;7.11;97.27;98811.52;218632;1257;141292;-71
2024/02/05 20:48:27;;;;;;;4.70;3.60;;;;;;;7.14;96.53;98810.30;217533;1256;139618;-69
2024/02/05 20:53:32;;;;;;;10.40;4.00;;;;;;;7.17;96.00;98809.52;217416;1260;139616;-70
2024/02/05 20:58:36;;;;;;;13.00;4.90;;;;;;;7.20;95.87;98803.11;216954;1257;140478;-70
2024/02/05 21:03:40;;;;;;;12.30;3.60;;;;;;;7.22;95.66;98808.61;217089;1257;140230;-69
2024/02/05 21:08:45;;;;;;;17.30;4.80;;;;;;;7.25;95.08;98808.39;217110;1257;140192;-73
2024/02/05 21:13:48;;;;;;;10.60;4.50;;;;;;;7.28;94.77;98812.44;219132;1257;139647;-72
2024/02/05 21:18:53;;;;;;;9.70;4.60;;;;;;;7.33;94.47;98812.70;217766;1257;139621;-71
2024/02/05 21:23:57;;;;;;;7.00;4.10;;;;;;;7.37;93.91;98814.73;217837;1257;139552;-71
2024/02/05 21:29:04;;;;;;;15.70;5.10;;;;;;;7.39;93.91;98816.39;219839;1256;141304;-69
2024/02/05 21:34:09;;;;;;;9.10;4.30;;;;;;;7.40;93.75;98817.64;217122;1257;140248;-71
2024/02/05 21:39:14;;;;;;;8.90;5.60;;;;;;;7.42;93.26;98807.81;218151;1257;139926;-74
2024/02/05 21:44:20;;;;;;;18.90;6.20;;;;;;;7.44;93.01;98813.31;217291;1261;140069;-74
2024/02/05 21:49:25;;;;;;;7.70;6.00;;;;;;;7.45;92.90;98801.30;216960;1257;221365;-74
2024/02/05 21:54:29;;;;;;;14.50;5.50;;;;;;;7.45;92.77;98802.64;217676;1259;140379;-73
2024/02/05 21:59:33;;;;;;;7.50;5.30;;;;;;;7.47;92.61;98802.08;217211;1257;139499;-73
2024/02/05 22:04:37;;;;;;;14.20;5.90;;;;;;;7.49;92.13;98801.17;217835;1257;140509;-71
2024/02/05 22:09:42;;;;;;;23.60;7.90;;;;;;;7.52;92.00;98809.23;217112;1257;139351;-72
2024/02/05 22:14:50;;;;;;;7.90;4.90;;;;;;;7.54;91.72;98812.77;216829;1261;139513;-72
2024/02/05 22:19:54;;;;;;;9.40;5.20;;;;;;;7.56;91.63;98813.55;217702;1260;139251;-72
2024/02/05 22:24:58;;;;;;;14.30;4.70;;;;;;;7.59;91.54;98807.67;217102;1257;139137;-71
2024/02/05 22:30:04;;;;;;;13.60;5.80;;;;;;;7.61;90.78;98812.31;217138;1257;139959;-71
2024/02/05 22:35:09;;;;;;;12.00;5.50;;;;;;;7.62;90.67;98814.25;217999;1260;139734;-71
2024/02/05 22:40:16;;;;;;;12.00;5.70;;;;;;;7.63;90.39;98809.77;217723;1257;140296;-73
2024/02/05 22:45:20;;;;;;;14.80;7.10;;;;;;;7.66;90.07;98809.36;217542;1260;140406;-71
2024/02/05 22:50:25;;;;;;;13.90;6.50;;;;;;;7.68;90.01;98806.91;219169;1257;139981;-72
2024/02/05 22:55:30;;;;;;;19.50;6.70;;;;;;;7.70;89.77;98809.71;217354;1257;140799;-72
2024/02/05 23:00:35;;;;;;;15.80;7.10;;;;;;;7.72;89.81;98817.55;218428;1257;140993;-72
2024/02/05 23:05:39;;;;;;;16.90;6.30;;;;;;;7.74;89.71;98826.98;218604;1257;140317;-72
2024/02/05 23:10:44;;;;;;;17.30;6.30;;;;;;;7.76;89.37;98830.84;217630;1257;140100;-71
2024/02/05 23:15:49;;;;;;;11.80;6.00;;;;;;;7.78;89.17;98836.98;217506;1257;139699;-71
2024/02/05 23:20:53;;;;;;;15.50;8.90;;;;;;;7.80;89.06;98835.27;218253;1257;140238;-70
2024/02/05 23:25:58;;;;;;;13.50;6.20;;;;;;;7.82;89.05;98838.73;220039;1257;140742;-71
2024/02/05 23:31:03;;;;;;;12.50;6.00;;;;;;;7.84;88.56;98835.91;219754;1257;139990;-71
2024/02/05 23:36:06;;;;;;;18.10;6.10;;;;;;;7.87;88.51;98838.55;217134;1257;140439;-70
2024/02/05 23:41:11;;;;;;;11.10;4.70;;;;;;;7.88;88.10;98834.23;217458;1257;139580;-75